sensor_id;sensor_type;location;lat;lon;timestamp;P1;durP1;ratioP1;P2;durP2;ratioP2
63693;SDS011;49839;51.798;10.954;2024-01-06T00:01:25;5.28;;;1.55;;
63693;SDS011;49839;51.798;10.954;2024-01-06T00:03:52;3.38;;;0.90;;
63693;SDS011;49839;51.798;10.954;2024-01-06T00:06:22;2.58;;;1.00;;
63693;SDS011;49839;51.798;10.954;2024-01-06T00:08:49;8.45;;;1.08;;
63693;SDS011;49839;51.798;10.954;2024-01-06T00:11:21;4.18;;;0.90;;
63693;SDS011;49839;51.798;10.954;2024-01-06T00:13:49;5.50;;;0.95;;
63693;SDS011;49839;51.798;10.954;2024-01-06T00:16:17;3.65;;;0.70;;
63693;SDS011;49839;51.798;10.954;2024-01-06T00:18:45;5.43;;;0.90;;
63693;SDS011;49839;51.798;10.954;2024-01-06T00:21:12;3.20;;;0.80;;
63693;SDS011;49839;51.798;10.954;2024-01-06T00:23:40;3.83;;;1.00;;
63693;SDS011;49839;51.798;10.954;2024-01-06T00:26:08;4.22;;;1.05;;
63693;SDS011;49839;51.798;10.954;2024-01-06T00:28:38;4.15;;;1.30;;
63693;SDS011;49839;51.798;10.954;2024-01-06T00:31:06;3.13;;;0.77;;
63693;SDS011;49839;51.798;10.954;2024-01-06T00:33:33;2.53;;;0.77;;
63693;SDS011;49839;51.798;10.954;2024-01-06T00:36:01;4.80;;;0.90;;
63693;SDS011;49839;51.798;10.954;2024-01-06T00:38:29;4.30;;;1.13;;
63693;SDS011;49839;51.798;10.954;2024-01-06T00:40:56;4.60;;;1.08;;
63693;SDS011;49839;51.798;10.954;2024-01-06T00:43:23;3.13;;;0.80;;
63693;SDS011;49839;51.798;10.954;2024-01-06T00:45:52;3.95;;;1.00;;
63693;SDS011;49839;51.798;10.954;2024-01-06T00:48:20;5.03;;;0.95;;
63693;SDS011;49839;51.798;10.954;2024-01-06T00:50:47;3.17;;;0.80;;
63693;SDS011;49839;51.798;10.954;2024-01-06T00:53:15;3.88;;;1.10;;
63693;SDS011;49839;51.798;10.954;2024-01-06T00:55:42;4.88;;;0.80;;
63693;SDS011;49839;51.798;10.954;2024-01-06T00:58:10;5.18;;;0.80;;
63693;SDS011;49839;51.798;10.954;2024-01-06T01:00:37;1.98;;;0.80;;
63693;SDS011;49839;51.798;10.954;2024-01-06T01:03:06;2.13;;;0.70;;
63693;SDS011;49839;51.798;10.954;2024-01-06T01:05:33;4.22;;;1.05;;
63693;SDS011;49839;51.798;10.954;2024-01-06T01:08:01;3.92;;;1.58;;
63693;SDS011;49839;51.798;10.954;2024-01-06T01:10:29;3.13;;;0.82;;
63693;SDS011;49839;51.798;10.954;2024-01-06T01:12:56;3.50;;;0.93;;
63693;SDS011;49839;51.798;10.954;2024-01-06T01:15:23;5.70;;;1.05;;
63693;SDS011;49839;51.798;10.954;2024-01-06T01:17:51;4.45;;;0.90;;
63693;SDS011;49839;51.798;10.954;2024-01-06T01:20:20;3.78;;;1.10;;
63693;SDS011;49839;51.798;10.954;2024-01-06T01:22:47;2.17;;;0.65;;
63693;SDS011;49839;51.798;10.954;2024-01-06T01:25:15;2.28;;;0.68;;
63693;SDS011;49839;51.798;10.954;2024-01-06T01:27:42;3.15;;;0.90;;
63693;SDS011;49839;51.798;10.954;2024-01-06T01:30:10;7.38;;;1.15;;
63693;SDS011;49839;51.798;10.954;2024-01-06T01:32:38;2.42;;;0.80;;
63693;SDS011;49839;51.798;10.954;2024-01-06T01:35:06;1.95;;;0.60;;
63693;SDS011;49839;51.798;10.954;2024-01-06T01:37:35;2.72;;;0.98;;
63693;SDS011;49839;51.798;10.954;2024-01-06T01:40:02;3.83;;;0.80;;
63693;SDS011;49839;51.798;10.954;2024-01-06T01:42:30;4.90;;;0.90;;
63693;SDS011;49839;51.798;10.954;2024-01-06T01:44:57;3.65;;;0.93;;
63693;SDS011;49839;51.798;10.954;2024-01-06T01:47:25;6.45;;;1.10;;
63693;SDS011;49839;51.798;10.954;2024-01-06T01:49:52;2.28;;;0.70;;
63693;SDS011;49839;51.798;10.954;2024-01-06T01:52:21;3.42;;;0.90;;
63693;SDS011;49839;51.798;10.954;2024-01-06T01:54:50;2.67;;;0.90;;
63693;SDS011;49839;51.798;10.954;2024-01-06T01:57:19;2.22;;;0.85;;
63693;SDS011;49839;51.798;10.954;2024-01-06T01:59:48;4.38;;;0.95;;
63693;SDS011;49839;51.798;10.954;2024-01-06T02:02:17;4.15;;;1.00;;
63693;SDS011;49839;51.798;10.954;2024-01-06T02:04:45;5.32;;;1.30;;
63693;SDS011;49839;51.798;10.954;2024-01-06T02:07:13;2.03;;;0.80;;
63693;SDS011;49839;51.798;10.954;2024-01-06T02:09:41;4.20;;;0.80;;
63693;SDS011;49839;51.798;10.954;2024-01-06T02:12:09;2.72;;;0.80;;
63693;SDS011;49839;51.798;10.954;2024-01-06T02:14:37;3.60;;;1.00;;
63693;SDS011;49839;51.798;10.954;2024-01-06T02:17:04;3.33;;;0.80;;
63693;SDS011;49839;51.798;10.954;2024-01-06T02:19:32;4.22;;;0.77;;
63693;SDS011;49839;51.798;10.954;2024-01-06T02:22:00;2.35;;;0.85;;
63693;SDS011;49839;51.798;10.954;2024-01-06T02:24:28;5.53;;;0.90;;
63693;SDS011;49839;51.798;10.954;2024-01-06T02:26:55;4.97;;;1.10;;
63693;SDS011;49839;51.798;10.954;2024-01-06T02:29:23;4.15;;;1.10;;
63693;SDS011;49839;51.798;10.954;2024-01-06T02:31:50;5.97;;;0.82;;
63693;SDS011;49839;51.798;10.954;2024-01-06T02:34:18;6.30;;;0.90;;
63693;SDS011;49839;51.798;10.954;2024-01-06T02:36:45;3.42;;;0.73;;
63693;SDS011;49839;51.798;10.954;2024-01-06T02:39:14;4.20;;;0.80;;
63693;SDS011;49839;51.798;10.954;2024-01-06T02:41:41;4.22;;;1.08;;
63693;SDS011;49839;51.798;10.954;2024-01-06T02:44:09;3.85;;;0.95;;
63693;SDS011;49839;51.798;10.954;2024-01-06T02:46:39;3.03;;;0.75;;
63693;SDS011;49839;51.798;10.954;2024-01-06T02:49:07;2.97;;;0.88;;
63693;SDS011;49839;51.798;10.954;2024-01-06T02:51:35;4.55;;;1.00;;
63693;SDS011;49839;51.798;10.954;2024-01-06T02:54:02;3.83;;;0.90;;
63693;SDS011;49839;51.798;10.954;2024-01-06T02:56:31;5.53;;;1.00;;
63693;SDS011;49839;51.798;10.954;2024-01-06T02:58:59;4.10;;;1.20;;
63693;SDS011;49839;51.798;10.954;2024-01-06T03:01:26;4.72;;;1.08;;
63693;SDS011;49839;51.798;10.954;2024-01-06T03:03:54;3.75;;;0.95;;
63693;SDS011;49839;51.798;10.954;2024-01-06T03:06:21;7.00;;;2.35;;
63693;SDS011;49839;51.798;10.954;2024-01-06T03:08:49;5.13;;;0.90;;
63693;SDS011;49839;51.798;10.954;2024-01-06T03:11:16;3.00;;;0.80;;
63693;SDS011;49839;51.798;10.954;2024-01-06T03:13:45;4.82;;;1.10;;
63693;SDS011;49839;51.798;10.954;2024-01-06T03:16:12;4.22;;;1.00;;
63693;SDS011;49839;51.798;10.954;2024-01-06T03:18:40;3.40;;;0.90;;
63693;SDS011;49839;51.798;10.954;2024-01-06T03:21:16;3.65;;;0.80;;
63693;SDS011;49839;51.798;10.954;2024-01-06T03:23:43;3.67;;;0.80;;
63693;SDS011;49839;51.798;10.954;2024-01-06T03:26:11;6.22;;;1.00;;
63693;SDS011;49839;51.798;10.954;2024-01-06T03:28:38;1.95;;;0.70;;
63693;SDS011;49839;51.798;10.954;2024-01-06T03:31:07;3.97;;;0.88;;
63693;SDS011;49839;51.798;10.954;2024-01-06T03:33:34;7.22;;;1.10;;
63693;SDS011;49839;51.798;10.954;2024-01-06T03:36:04;5.93;;;0.88;;
63693;SDS011;49839;51.798;10.954;2024-01-06T03:38:31;2.20;;;0.80;;
63693;SDS011;49839;51.798;10.954;2024-01-06T03:40:59;3.90;;;0.98;;
63693;SDS011;49839;51.798;10.954;2024-01-06T03:43:27;2.30;;;0.75;;
63693;SDS011;49839;51.798;10.954;2024-01-06T03:45:54;3.88;;;0.80;;
63693;SDS011;49839;51.798;10.954;2024-01-06T03:48:25;8.15;;;0.77;;
63693;SDS011;49839;51.798;10.954;2024-01-06T03:50:53;3.75;;;1.00;;
63693;SDS011;49839;51.798;10.954;2024-01-06T03:53:21;7.72;;;1.38;;
63693;SDS011;49839;51.798;10.954;2024-01-06T03:55:52;4.35;;;1.00;;
63693;SDS011;49839;51.798;10.954;2024-01-06T03:58:20;3.78;;;1.10;;
63693;SDS011;49839;51.798;10.954;2024-01-06T04:00:47;3.40;;;0.93;;
63693;SDS011;49839;51.798;10.954;2024-01-06T04:03:15;3.35;;;0.80;;
63693;SDS011;49839;51.798;10.954;2024-01-06T04:05:44;4.45;;;0.90;;
63693;SDS011;49839;51.798;10.954;2024-01-06T04:08:11;3.93;;;1.10;;
63693;SDS011;49839;51.798;10.954;2024-01-06T04:10:39;1.88;;;0.80;;
63693;SDS011;49839;51.798;10.954;2024-01-06T04:13:07;4.43;;;0.90;;
63693;SDS011;49839;51.798;10.954;2024-01-06T04:15:35;2.90;;;0.90;;
63693;SDS011;49839;51.798;10.954;2024-01-06T04:18:02;3.42;;;1.05;;
63693;SDS011;49839;51.798;10.954;2024-01-06T04:20:30;3.78;;;0.82;;
63693;SDS011;49839;51.798;10.954;2024-01-06T04:22:59;5.13;;;1.10;;
63693;SDS011;49839;51.798;10.954;2024-01-06T04:25:27;8.90;;;1.00;;
63693;SDS011;49839;51.798;10.954;2024-01-06T04:27:54;5.00;;;1.27;;
63693;SDS011;49839;51.798;10.954;2024-01-06T04:30:22;7.53;;;1.23;;
63693;SDS011;49839;51.798;10.954;2024-01-06T04:32:51;4.15;;;1.45;;
63693;SDS011;49839;51.798;10.954;2024-01-06T04:35:19;5.95;;;1.08;;
63693;SDS011;49839;51.798;10.954;2024-01-06T04:37:47;2.60;;;1.00;;
63693;SDS011;49839;51.798;10.954;2024-01-06T04:40:16;5.38;;;1.00;;
63693;SDS011;49839;51.798;10.954;2024-01-06T04:42:44;5.30;;;1.10;;
63693;SDS011;49839;51.798;10.954;2024-01-06T04:45:11;3.88;;;0.80;;
63693;SDS011;49839;51.798;10.954;2024-01-06T04:47:39;3.85;;;0.90;;
63693;SDS011;49839;51.798;10.954;2024-01-06T04:50:06;2.70;;;1.00;;
63693;SDS011;49839;51.798;10.954;2024-01-06T04:52:33;5.82;;;1.27;;
63693;SDS011;49839;51.798;10.954;2024-01-06T04:55:00;3.70;;;0.98;;
63693;SDS011;49839;51.798;10.954;2024-01-06T04:57:30;4.00;;;0.93;;
63693;SDS011;49839;51.798;10.954;2024-01-06T04:59:57;6.35;;;0.93;;
63693;SDS011;49839;51.798;10.954;2024-01-06T05:02:25;2.00;;;0.73;;
63693;SDS011;49839;51.798;10.954;2024-01-06T05:04:53;3.47;;;0.75;;
63693;SDS011;49839;51.798;10.954;2024-01-06T05:07:20;4.50;;;0.90;;
63693;SDS011;49839;51.798;10.954;2024-01-06T05:09:48;3.25;;;0.75;;
63693;SDS011;49839;51.798;10.954;2024-01-06T05:12:15;1.73;;;0.70;;
63693;SDS011;49839;51.798;10.954;2024-01-06T05:14:44;2.88;;;0.90;;
63693;SDS011;49839;51.798;10.954;2024-01-06T05:17:12;4.80;;;1.00;;
63693;SDS011;49839;51.798;10.954;2024-01-06T05:19:39;3.15;;;0.70;;
63693;SDS011;49839;51.798;10.954;2024-01-06T05:22:07;5.15;;;1.02;;
63693;SDS011;49839;51.798;10.954;2024-01-06T05:24:34;4.88;;;1.05;;
63693;SDS011;49839;51.798;10.954;2024-01-06T05:27:01;2.95;;;0.88;;
63693;SDS011;49839;51.798;10.954;2024-01-06T05:29:29;2.95;;;0.82;;
63693;SDS011;49839;51.798;10.954;2024-01-06T05:31:58;3.90;;;1.02;;
63693;SDS011;49839;51.798;10.954;2024-01-06T05:34:25;2.00;;;0.80;;
63693;SDS011;49839;51.798;10.954;2024-01-06T05:36:53;3.88;;;1.15;;
63693;SDS011;49839;51.798;10.954;2024-01-06T05:39:21;3.40;;;0.90;;
63693;SDS011;49839;51.798;10.954;2024-01-06T05:41:48;5.93;;;1.20;;
63693;SDS011;49839;51.798;10.954;2024-01-06T05:44:16;5.25;;;1.20;;
63693;SDS011;49839;51.798;10.954;2024-01-06T05:46:43;6.57;;;1.27;;
63693;SDS011;49839;51.798;10.954;2024-01-06T05:49:12;4.75;;;1.27;;
63693;SDS011;49839;51.798;10.954;2024-01-06T05:51:43;4.03;;;1.23;;
63693;SDS011;49839;51.798;10.954;2024-01-06T05:54:11;5.60;;;1.35;;
63693;SDS011;49839;51.798;10.954;2024-01-06T05:56:38;4.05;;;1.25;;
63693;SDS011;49839;51.798;10.954;2024-01-06T05:59:06;7.30;;;1.45;;
63693;SDS011;49839;51.798;10.954;2024-01-06T06:01:34;5.00;;;1.25;;
63693;SDS011;49839;51.798;10.954;2024-01-06T06:04:01;5.15;;;1.27;;
63693;SDS011;49839;51.798;10.954;2024-01-06T06:06:31;5.03;;;1.02;;
63693;SDS011;49839;51.798;10.954;2024-01-06T06:08:59;2.75;;;1.17;;
63693;SDS011;49839;51.798;10.954;2024-01-06T06:11:26;4.60;;;1.00;;
63693;SDS011;49839;51.798;10.954;2024-01-06T06:13:54;7.28;;;1.58;;
63693;SDS011;49839;51.798;10.954;2024-01-06T06:16:21;5.57;;;1.70;;
63693;SDS011;49839;51.798;10.954;2024-01-06T06:18:48;5.65;;;2.45;;
63693;SDS011;49839;51.798;10.954;2024-01-06T06:21:16;4.05;;;1.15;;
63693;SDS011;49839;51.798;10.954;2024-01-06T06:23:45;5.82;;;2.13;;
63693;SDS011;49839;51.798;10.954;2024-01-06T06:26:12;7.47;;;2.20;;
63693;SDS011;49839;51.798;10.954;2024-01-06T06:28:40;10.35;;;2.60;;
63693;SDS011;49839;51.798;10.954;2024-01-06T06:31:07;6.55;;;2.42;;
63693;SDS011;49839;51.798;10.954;2024-01-06T06:33:35;10.82;;;3.33;;
63693;SDS011;49839;51.798;10.954;2024-01-06T06:36:03;9.38;;;2.92;;
63693;SDS011;49839;51.798;10.954;2024-01-06T06:38:30;8.13;;;3.08;;
63693;SDS011;49839;51.798;10.954;2024-01-06T06:40:59;7.75;;;2.88;;
63693;SDS011;49839;51.798;10.954;2024-01-06T06:43:27;9.43;;;3.08;;
63693;SDS011;49839;51.798;10.954;2024-01-06T06:45:54;9.23;;;3.60;;
63693;SDS011;49839;51.798;10.954;2024-01-06T06:48:22;10.15;;;3.35;;
63693;SDS011;49839;51.798;10.954;2024-01-06T06:50:50;9.13;;;3.60;;
63693;SDS011;49839;51.798;10.954;2024-01-06T06:53:17;7.60;;;3.08;;
63693;SDS011;49839;51.798;10.954;2024-01-06T06:55:45;9.48;;;3.50;;
63693;SDS011;49839;51.798;10.954;2024-01-06T06:58:14;8.90;;;4.40;;
63693;SDS011;49839;51.798;10.954;2024-01-06T07:00:42;13.85;;;5.78;;
63693;SDS011;49839;51.798;10.954;2024-01-06T07:03:10;14.35;;;7.10;;
63693;SDS011;49839;51.798;10.954;2024-01-06T07:05:37;12.45;;;6.88;;
63693;SDS011;49839;51.798;10.954;2024-01-06T07:08:05;13.00;;;7.22;;
63693;SDS011;49839;51.798;10.954;2024-01-06T07:10:33;19.73;;;7.15;;
63693;SDS011;49839;51.798;10.954;2024-01-06T07:13:00;12.73;;;6.80;;
63693;SDS011;49839;51.798;10.954;2024-01-06T07:15:30;12.90;;;7.20;;
63693;SDS011;49839;51.798;10.954;2024-01-06T07:17:57;13.73;;;7.32;;
63693;SDS011;49839;51.798;10.954;2024-01-06T07:20:25;15.40;;;7.57;;
63693;SDS011;49839;51.798;10.954;2024-01-06T07:22:52;14.38;;;7.53;;
63693;SDS011;49839;51.798;10.954;2024-01-06T07:25:20;13.70;;;7.72;;
63693;SDS011;49839;51.798;10.954;2024-01-06T07:27:47;14.82;;;8.45;;
63693;SDS011;49839;51.798;10.954;2024-01-06T07:30:18;15.77;;;8.32;;
63693;SDS011;49839;51.798;10.954;2024-01-06T07:32:47;17.90;;;8.57;;
63693;SDS011;49839;51.798;10.954;2024-01-06T07:35:17;22.65;;;9.68;;
63693;SDS011;49839;51.798;10.954;2024-01-06T07:37:44;16.88;;;9.43;;
63693;SDS011;49839;51.798;10.954;2024-01-06T07:40:12;17.83;;;9.35;;
63693;SDS011;49839;51.798;10.954;2024-01-06T07:42:42;18.00;;;9.48;;
63693;SDS011;49839;51.798;10.954;2024-01-06T07:45:10;19.33;;;10.20;;
63693;SDS011;49839;51.798;10.954;2024-01-06T07:47:39;22.02;;;11.05;;
63693;SDS011;49839;51.798;10.954;2024-01-06T07:50:09;22.10;;;11.75;;
63693;SDS011;49839;51.798;10.954;2024-01-06T07:52:36;23.75;;;12.15;;
63693;SDS011;49839;51.798;10.954;2024-01-06T07:55:04;23.13;;;11.55;;
63693;SDS011;49839;51.798;10.954;2024-01-06T07:57:32;23.38;;;11.80;;
63693;SDS011;49839;51.798;10.954;2024-01-06T07:59:59;24.02;;;11.68;;
63693;SDS011;49839;51.798;10.954;2024-01-06T08:02:31;29.95;;;13.57;;
63693;SDS011;49839;51.798;10.954;2024-01-06T08:04:58;29.90;;;14.38;;
63693;SDS011;49839;51.798;10.954;2024-01-06T08:07:27;26.45;;;12.90;;
63693;SDS011;49839;51.798;10.954;2024-01-06T08:09:54;31.00;;;13.65;;
63693;SDS011;49839;51.798;10.954;2024-01-06T08:12:22;40.72;;;14.15;;
63693;SDS011;49839;51.798;10.954;2024-01-06T08:14:50;68.72;;;13.60;;
63693;SDS011;49839;51.798;10.954;2024-01-06T08:17:17;70.20;;;15.85;;
63693;SDS011;49839;51.798;10.954;2024-01-06T08:19:45;37.58;;;16.30;;
63693;SDS011;49839;51.798;10.954;2024-01-06T08:22:13;60.03;;;20.52;;
63693;SDS011;49839;51.798;10.954;2024-01-06T08:24:42;73.90;;;16.80;;
63693;SDS011;49839;51.798;10.954;2024-01-06T08:27:09;89.50;;;15.38;;
63693;SDS011;49839;51.798;10.954;2024-01-06T08:29:37;48.42;;;14.93;;
63693;SDS011;49839;51.798;10.954;2024-01-06T08:32:05;62.85;;;15.70;;
63693;SDS011;49839;51.798;10.954;2024-01-06T08:34:32;132.75;;;15.98;;
63693;SDS011;49839;51.798;10.954;2024-01-06T08:37:00;144.80;;;15.75;;
63693;SDS011;49839;51.798;10.954;2024-01-06T08:39:27;114.63;;;15.35;;
63693;SDS011;49839;51.798;10.954;2024-01-06T08:41:56;123.55;;;15.90;;
63693;SDS011;49839;51.798;10.954;2024-01-06T08:44:27;98.88;;;17.33;;
63693;SDS011;49839;51.798;10.954;2024-01-06T08:46:54;115.90;;;17.77;;
63693;SDS011;49839;51.798;10.954;2024-01-06T08:49:22;89.22;;;15.85;;
63693;SDS011;49839;51.798;10.954;2024-01-06T08:51:50;112.43;;;16.13;;
63693;SDS011;49839;51.798;10.954;2024-01-06T08:54:18;73.63;;;16.00;;
63693;SDS011;49839;51.798;10.954;2024-01-06T08:56:45;84.40;;;16.25;;
63693;SDS011;49839;51.798;10.954;2024-01-06T08:59:14;87.68;;;16.67;;
63693;SDS011;49839;51.798;10.954;2024-01-06T09:01:42;73.38;;;15.38;;
63693;SDS011;49839;51.798;10.954;2024-01-06T09:04:13;56.67;;;15.32;;
63693;SDS011;49839;51.798;10.954;2024-01-06T09:06:41;54.97;;;15.43;;
63693;SDS011;49839;51.798;10.954;2024-01-06T09:09:09;50.17;;;16.90;;
63693;SDS011;49839;51.798;10.954;2024-01-06T09:11:37;65.47;;;15.13;;
63693;SDS011;49839;51.798;10.954;2024-01-06T09:14:04;32.42;;;14.27;;
63693;SDS011;49839;51.798;10.954;2024-01-06T09:16:33;46.38;;;16.08;;
63693;SDS011;49839;51.798;10.954;2024-01-06T09:19:00;41.72;;;18.05;;
63693;SDS011;49839;51.798;10.954;2024-01-06T09:21:28;37.50;;;17.10;;
63693;SDS011;49839;51.798;10.954;2024-01-06T09:23:56;68.57;;;17.05;;
63693;SDS011;49839;51.798;10.954;2024-01-06T09:26:23;92.88;;;15.95;;
63693;SDS011;49839;51.798;10.954;2024-01-06T09:28:51;117.10;;;17.17;;
63693;SDS011;49839;51.798;10.954;2024-01-06T09:31:18;50.80;;;17.05;;
63693;SDS011;49839;51.798;10.954;2024-01-06T09:33:47;76.03;;;16.50;;
63693;SDS011;49839;51.798;10.954;2024-01-06T09:36:16;155.90;;;16.20;;
63693;SDS011;49839;51.798;10.954;2024-01-06T09:38:44;179.40;;;18.10;;
63693;SDS011;49839;51.798;10.954;2024-01-06T09:41:11;148.10;;;18.20;;
63693;SDS011;49839;51.798;10.954;2024-01-06T09:43:39;141.77;;;17.38;;
63693;SDS011;49839;51.798;10.954;2024-01-06T09:46:10;210.98;;;18.05;;
63693;SDS011;49839;51.798;10.954;2024-01-06T09:48:39;213.98;;;18.58;;
63693;SDS011;49839;51.798;10.954;2024-01-06T09:51:10;168.85;;;16.60;;
63693;SDS011;49839;51.798;10.954;2024-01-06T09:53:42;167.00;;;18.00;;
63693;SDS011;49839;51.798;10.954;2024-01-06T09:56:10;111.95;;;17.63;;
63693;SDS011;49839;51.798;10.954;2024-01-06T09:58:38;129.85;;;18.67;;
63693;SDS011;49839;51.798;10.954;2024-01-06T10:01:06;176.88;;;18.25;;
63693;SDS011;49839;51.798;10.954;2024-01-06T10:03:35;231.13;;;19.05;;
63693;SDS011;49839;51.798;10.954;2024-01-06T10:06:03;175.85;;;19.35;;
63693;SDS011;49839;51.798;10.954;2024-01-06T10:08:32;180.93;;;19.05;;
63693;SDS011;49839;51.798;10.954;2024-01-06T10:11:00;178.00;;;19.17;;
63693;SDS011;49839;51.798;10.954;2024-01-06T10:13:28;150.23;;;17.40;;
63693;SDS011;49839;51.798;10.954;2024-01-06T10:15:55;130.82;;;17.92;;
63693;SDS011;49839;51.798;10.954;2024-01-06T10:18:24;148.70;;;18.35;;
63693;SDS011;49839;51.798;10.954;2024-01-06T10:20:52;130.43;;;17.10;;
63693;SDS011;49839;51.798;10.954;2024-01-06T10:23:21;108.20;;;18.20;;
63693;SDS011;49839;51.798;10.954;2024-01-06T10:25:52;215.27;;;18.40;;
63693;SDS011;49839;51.798;10.954;2024-01-06T10:28:24;214.20;;;18.15;;
63693;SDS011;49839;51.798;10.954;2024-01-06T10:30:51;134.10;;;16.73;;
63693;SDS011;49839;51.798;10.954;2024-01-06T10:33:20;123.80;;;14.80;;
63693;SDS011;49839;51.798;10.954;2024-01-06T10:35:47;95.75;;;14.40;;
63693;SDS011;49839;51.798;10.954;2024-01-06T10:38:15;54.70;;;13.45;;
63693;SDS011;49839;51.798;10.954;2024-01-06T10:40:56;61.05;;;14.30;;
63693;SDS011;49839;51.798;10.954;2024-01-06T10:43:25;83.32;;;11.63;;
63693;SDS011;49839;51.798;10.954;2024-01-06T10:45:53;30.02;;;13.18;;
63693;SDS011;49839;51.798;10.954;2024-01-06T10:48:21;50.67;;;13.52;;
63693;SDS011;49839;51.798;10.954;2024-01-06T10:53:25;23.90;;;11.45;;
63693;SDS011;49839;51.798;10.954;2024-01-06T10:55:53;30.50;;;11.18;;
63693;SDS011;49839;51.798;10.954;2024-01-06T10:58:23;42.17;;;10.60;;
63693;SDS011;49839;51.798;10.954;2024-01-06T11:00:50;20.65;;;10.50;;
63693;SDS011;49839;51.798;10.954;2024-01-06T11:03:18;20.55;;;8.02;;
63693;SDS011;49839;51.798;10.954;2024-01-06T11:05:46;34.42;;;9.25;;
63693;SDS011;49839;51.798;10.954;2024-01-06T11:08:15;22.45;;;7.63;;
63693;SDS011;49839;51.798;10.954;2024-01-06T11:10:44;29.45;;;7.97;;
63693;SDS011;49839;51.798;10.954;2024-01-06T11:13:12;33.63;;;7.88;;
63693;SDS011;49839;51.798;10.954;2024-01-06T11:15:46;69.25;;;8.55;;
63693;SDS011;49839;51.798;10.954;2024-01-06T11:21:18;84.65;;;8.73;;
63693;SDS011;49839;51.798;10.954;2024-01-06T11:24:06;109.03;;;8.65;;
63693;SDS011;49839;51.798;10.954;2024-01-06T11:26:38;89.63;;;9.55;;
63693;SDS011;49839;51.798;10.954;2024-01-06T11:29:05;63.90;;;9.48;;
63693;SDS011;49839;51.798;10.954;2024-01-06T11:31:36;104.60;;;9.52;;
63693;SDS011;49839;51.798;10.954;2024-01-06T11:34:11;92.70;;;9.40;;
63693;SDS011;49839;51.798;10.954;2024-01-06T11:36:39;99.45;;;9.32;;
63693;SDS011;49839;51.798;10.954;2024-01-06T11:39:07;50.85;;;9.02;;
63693;SDS011;49839;51.798;10.954;2024-01-06T11:41:50;116.88;;;8.73;;
63693;SDS011;49839;51.798;10.954;2024-01-06T11:44:18;98.25;;;10.13;;
63693;SDS011;49839;51.798;10.954;2024-01-06T11:46:47;127.63;;;9.38;;
63693;SDS011;49839;51.798;10.954;2024-01-06T11:49:15;75.88;;;8.15;;
63693;SDS011;49839;51.798;10.954;2024-01-06T11:51:43;100.22;;;9.15;;
63693;SDS011;49839;51.798;10.954;2024-01-06T12:04:59;77.10;;;8.48;;
63693;SDS011;49839;51.798;10.954;2024-01-06T12:07:26;67.80;;;9.13;;
63693;SDS011;49839;51.798;10.954;2024-01-06T12:10:00;65.07;;;8.82;;
63693;SDS011;49839;51.798;10.954;2024-01-06T12:12:28;99.75;;;9.77;;
63693;SDS011;49839;51.798;10.954;2024-01-06T12:14:56;106.88;;;10.38;;
63693;SDS011;49839;51.798;10.954;2024-01-06T12:17:23;89.68;;;10.13;;
63693;SDS011;49839;51.798;10.954;2024-01-06T12:19:55;92.47;;;9.25;;
63693;SDS011;49839;51.798;10.954;2024-01-06T12:22:24;83.78;;;9.32;;
63693;SDS011;49839;51.798;10.954;2024-01-06T12:24:51;121.18;;;10.43;;
63693;SDS011;49839;51.798;10.954;2024-01-06T12:27:19;83.82;;;9.88;;
63693;SDS011;49839;51.798;10.954;2024-01-06T12:29:48;104.95;;;9.25;;
63693;SDS011;49839;51.798;10.954;2024-01-06T12:32:15;55.70;;;8.27;;
63693;SDS011;49839;51.798;10.954;2024-01-06T12:34:42;92.68;;;9.68;;
63693;SDS011;49839;51.798;10.954;2024-01-06T12:37:10;75.00;;;9.95;;
63693;SDS011;49839;51.798;10.954;2024-01-06T12:42:10;80.07;;;9.00;;
63693;SDS011;49839;51.798;10.954;2024-01-06T12:44:37;49.55;;;9.35;;
63693;SDS011;49839;51.798;10.954;2024-01-06T12:47:06;106.70;;;9.45;;
63693;SDS011;49839;51.798;10.954;2024-01-06T12:49:33;192.32;;;11.38;;
63693;SDS011;49839;51.798;10.954;2024-01-06T12:52:04;106.25;;;10.02;;
63693;SDS011;49839;51.798;10.954;2024-01-06T12:54:31;133.45;;;9.65;;
63693;SDS011;49839;51.798;10.954;2024-01-06T12:56:59;135.85;;;9.82;;
63693;SDS011;49839;51.798;10.954;2024-01-06T12:59:28;145.63;;;11.05;;
63693;SDS011;49839;51.798;10.954;2024-01-06T14:33:34;65.32;;;10.65;;
63693;SDS011;49839;51.798;10.954;2024-01-06T14:36:02;110.93;;;11.65;;
63693;SDS011;49839;51.798;10.954;2024-01-06T14:38:29;129.65;;;12.75;;
63693;SDS011;49839;51.798;10.954;2024-01-06T14:40:57;131.15;;;12.48;;
63693;SDS011;49839;51.798;10.954;2024-01-06T14:43:24;134.52;;;12.50;;
63693;SDS011;49839;51.798;10.954;2024-01-06T14:45:52;153.52;;;12.38;;
63693;SDS011;49839;51.798;10.954;2024-01-06T14:48:19;146.57;;;12.60;;
63693;SDS011;49839;51.798;10.954;2024-01-06T14:50:48;164.73;;;13.07;;
63693;SDS011;49839;51.798;10.954;2024-01-06T14:53:16;121.82;;;13.73;;
63693;SDS011;49839;51.798;10.954;2024-01-06T14:55:44;189.23;;;14.05;;
63693;SDS011;49839;51.798;10.954;2024-01-06T14:58:11;169.13;;;14.00;;
63693;SDS011;49839;51.798;10.954;2024-01-06T15:00:39;158.50;;;13.45;;
63693;SDS011;49839;51.798;10.954;2024-01-06T15:03:06;141.52;;;13.48;;
63693;SDS011;49839;51.798;10.954;2024-01-06T15:05:34;201.65;;;13.82;;
63693;SDS011;49839;51.798;10.954;2024-01-06T15:08:03;147.45;;;11.82;;
63693;SDS011;49839;51.798;10.954;2024-01-06T15:10:30;128.83;;;12.73;;
63693;SDS011;49839;51.798;10.954;2024-01-06T15:12:58;160.90;;;13.02;;
63693;SDS011;49839;51.798;10.954;2024-01-06T15:15:25;149.20;;;12.00;;
63693;SDS011;49839;51.798;10.954;2024-01-06T15:17:53;142.23;;;12.80;;
63693;SDS011;49839;51.798;10.954;2024-01-06T15:20:20;132.65;;;13.68;;
63693;SDS011;49839;51.798;10.954;2024-01-06T15:22:49;177.52;;;17.02;;
63693;SDS011;49839;51.798;10.954;2024-01-06T15:35:52;181.30;;;14.50;;
63693;SDS011;49839;51.798;10.954;2024-01-06T15:38:20;145.65;;;14.60;;
63693;SDS011;49839;51.798;10.954;2024-01-06T15:40:47;125.45;;;14.18;;
63693;SDS011;49839;51.798;10.954;2024-01-06T15:43:15;145.18;;;15.02;;
63693;SDS011;49839;51.798;10.954;2024-01-06T15:45:42;167.98;;;15.63;;
63693;SDS011;49839;51.798;10.954;2024-01-06T15:48:10;186.23;;;15.52;;
63693;SDS011;49839;51.798;10.954;2024-01-06T15:50:38;83.53;;;10.60;;
63693;SDS011;49839;51.798;10.954;2024-01-06T15:53:06;206.75;;;15.05;;
63693;SDS011;49839;51.798;10.954;2024-01-06T15:55:34;197.15;;;15.30;;
63693;SDS011;49839;51.798;10.954;2024-01-06T15:58:01;173.57;;;14.63;;
63693;SDS011;49839;51.798;10.954;2024-01-06T16:00:29;157.18;;;14.88;;
63693;SDS011;49839;51.798;10.954;2024-01-06T16:03:00;65.65;;;10.48;;
63693;SDS011;49839;51.798;10.954;2024-01-06T16:05:27;121.55;;;12.68;;
63693;SDS011;49839;51.798;10.954;2024-01-06T16:07:55;167.43;;;15.65;;
63693;SDS011;49839;51.798;10.954;2024-01-06T16:10:24;225.35;;;15.82;;
63693;SDS011;49839;51.798;10.954;2024-01-06T16:12:51;183.90;;;15.23;;
63693;SDS011;49839;51.798;10.954;2024-01-06T16:15:19;158.30;;;14.68;;
63693;SDS011;49839;51.798;10.954;2024-01-06T16:17:46;185.27;;;14.02;;
63693;SDS011;49839;51.798;10.954;2024-01-06T16:20:14;174.13;;;15.35;;
63693;SDS011;49839;51.798;10.954;2024-01-06T16:22:42;119.45;;;12.85;;
63693;SDS011;49839;51.798;10.954;2024-01-06T16:25:12;141.60;;;14.15;;
63693;SDS011;49839;51.798;10.954;2024-01-06T16:27:41;143.68;;;14.65;;